sensor_id;sensor_type;location;lat;lon;timestamp;P1;durP1;ratioP1;P2;durP2;ratioP2
31210;SDS011;17836;50.948;3.946;2022-09-09T00:03:44;6.55;;;2.10;;
31210;SDS011;17836;50.948;3.946;2022-09-09T00:06:23;7.07;;;2.22;;
31210;SDS011;17836;50.948;3.946;2022-09-09T00:09:08;5.07;;;2.58;;
31210;SDS011;17836;50.948;3.946;2022-09-09T00:14:23;8.15;;;2.30;;
31210;SDS011;17836;50.948;3.946;2022-09-09T00:16:55;6.30;;;2.30;;
31210;SDS011;17836;50.948;3.946;2022-09-09T00:19:24;4.95;;;1.75;;
31210;SDS011;17836;50.948;3.946;2022-09-09T00:24:42;4.80;;;1.88;;
31210;SDS011;17836;50.948;3.946;2022-09-09T00:27:11;8.10;;;1.92;;
31210;SDS011;17836;50.948;3.946;2022-09-09T00:29:43;4.78;;;2.05;;
31210;SDS011;17836;50.948;3.946;2022-09-09T00:32:15;8.57;;;2.10;;
31210;SDS011;17836;50.948;3.946;2022-09-09T00:37:07;6.33;;;1.90;;
31210;SDS011;17836;50.948;3.946;2022-09-09T00:39:38;10.57;;;2.20;;
31210;SDS011;17836;50.948;3.946;2022-09-09T00:44:44;3.65;;;2.13;;
31210;SDS011;17836;50.948;3.946;2022-09-09T00:50:00;10.32;;;2.42;;
31210;SDS011;17836;50.948;3.946;2022-09-09T00:57:27;9.48;;;2.85;;
31210;SDS011;17836;50.948;3.946;2022-09-09T01:02:39;5.03;;;2.17;;
31210;SDS011;17836;50.948;3.946;2022-09-09T01:05:11;6.18;;;2.08;;
31210;SDS011;17836;50.948;3.946;2022-09-09T01:07:38;7.47;;;2.92;;
31210;SDS011;17836;50.948;3.946;2022-09-09T01:10:11;6.97;;;2.55;;
31210;SDS011;17836;50.948;3.946;2022-09-09T01:12:42;6.53;;;1.75;;
31210;SDS011;17836;50.948;3.946;2022-09-09T01:15:19;7.88;;;1.90;;
31210;SDS011;17836;50.948;3.946;2022-09-09T01:26:32;6.68;;;2.35;;
31210;SDS011;17836;50.948;3.946;2022-09-09T01:28:36;4.53;;;1.90;;
31210;SDS011;17836;50.948;3.946;2022-09-09T01:31:06;6.88;;;2.00;;
31210;SDS011;17836;50.948;3.946;2022-09-09T01:33:32;6.55;;;1.83;;
31210;SDS011;17836;50.948;3.946;2022-09-09T01:36:05;5.43;;;1.87;;
31210;SDS011;17836;50.948;3.946;2022-09-09T01:38:32;6.18;;;1.90;;
31210;SDS011;17836;50.948;3.946;2022-09-09T01:40:59;5.07;;;1.40;;
31210;SDS011;17836;50.948;3.946;2022-09-09T01:43:25;5.32;;;1.67;;
31210;SDS011;17836;50.948;3.946;2022-09-09T01:45:52;6.15;;;2.03;;
31210;SDS011;17836;50.948;3.946;2022-09-09T01:48:18;8.98;;;2.30;;
31210;SDS011;17836;50.948;3.946;2022-09-09T01:50:44;5.78;;;1.77;;
31210;SDS011;17836;50.948;3.946;2022-09-09T01:53:09;4.97;;;1.60;;
31210;SDS011;17836;50.948;3.946;2022-09-09T01:55:39;7.22;;;1.60;;
31210;SDS011;17836;50.948;3.946;2022-09-09T01:58:20;6.13;;;2.22;;
31210;SDS011;17836;50.948;3.946;2022-09-09T02:00:51;5.03;;;1.92;;
31210;SDS011;17836;50.948;3.946;2022-09-09T02:05:49;8.50;;;2.00;;
31210;SDS011;17836;50.948;3.946;2022-09-09T02:08:18;8.02;;;2.17;;
31210;SDS011;17836;50.948;3.946;2022-09-09T02:10:46;8.45;;;2.55;;
31210;SDS011;17836;50.948;3.946;2022-09-09T02:13:15;4.40;;;2.05;;
31210;SDS011;17836;50.948;3.946;2022-09-09T02:18:10;9.85;;;2.65;;
31210;SDS011;17836;50.948;3.946;2022-09-09T02:20:37;4.28;;;2.00;;
31210;SDS011;17836;50.948;3.946;2022-09-09T02:23:03;5.00;;;1.83;;
31210;SDS011;17836;50.948;3.946;2022-09-09T02:25:29;7.70;;;2.92;;
31210;SDS011;17836;50.948;3.946;2022-09-09T02:27:55;7.97;;;2.00;;
31210;SDS011;17836;50.948;3.946;2022-09-09T02:30:22;7.22;;;2.30;;
31210;SDS011;17836;50.948;3.946;2022-09-09T02:32:48;8.90;;;2.87;;
31210;SDS011;17836;50.948;3.946;2022-09-09T02:35:17;6.53;;;2.35;;
31210;SDS011;17836;50.948;3.946;2022-09-09T02:37:45;4.32;;;2.10;;
31210;SDS011;17836;50.948;3.946;2022-09-09T02:40:13;9.23;;;2.10;;
31210;SDS011;17836;50.948;3.946;2022-09-09T02:42:41;7.57;;;2.20;;
31210;SDS011;17836;50.948;3.946;2022-09-09T02:45:07;7.38;;;2.08;;
31210;SDS011;17836;50.948;3.946;2022-09-09T02:47:38;8.98;;;1.70;;
31210;SDS011;17836;50.948;3.946;2022-09-09T02:50:09;7.13;;;2.45;;
31210;SDS011;17836;50.948;3.946;2022-09-09T02:52:41;8.57;;;2.45;;
31210;SDS011;17836;50.948;3.946;2022-09-09T02:55:13;9.77;;;2.53;;
31210;SDS011;17836;50.948;3.946;2022-09-09T02:57:41;15.60;;;2.95;;
31210;SDS011;17836;50.948;3.946;2022-09-09T03:00:07;3.63;;;2.00;;
31210;SDS011;17836;50.948;3.946;2022-09-09T03:02:33;12.95;;;2.25;;
31210;SDS011;17836;50.948;3.946;2022-09-09T03:04:58;6.25;;;1.90;;
31210;SDS011;17836;50.948;3.946;2022-09-09T03:07:23;8.47;;;2.67;;
31210;SDS011;17836;50.948;3.946;2022-09-09T03:09:48;11.43;;;2.70;;
31210;SDS011;17836;50.948;3.946;2022-09-09T03:12:14;11.63;;;3.17;;
31210;SDS011;17836;50.948;3.946;2022-09-09T03:14:39;15.50;;;3.00;;
31210;SDS011;17836;50.948;3.946;2022-09-09T03:17:04;7.83;;;2.40;;
31210;SDS011;17836;50.948;3.946;2022-09-09T03:19:30;9.65;;;2.45;;
31210;SDS011;17836;50.948;3.946;2022-09-09T03:21:57;11.25;;;2.60;;
31210;SDS011;17836;50.948;3.946;2022-09-09T03:24:22;10.10;;;2.95;;
31210;SDS011;17836;50.948;3.946;2022-09-09T03:26:48;7.43;;;2.72;;
31210;SDS011;17836;50.948;3.946;2022-09-09T03:29:14;8.73;;;2.58;;
31210;SDS011;17836;50.948;3.946;2022-09-09T03:31:39;7.82;;;2.50;;
31210;SDS011;17836;50.948;3.946;2022-09-09T03:34:06;15.88;;;2.47;;
31210;SDS011;17836;50.948;3.946;2022-09-09T03:36:31;9.70;;;2.60;;
31210;SDS011;17836;50.948;3.946;2022-09-09T03:38:57;11.27;;;2.47;;
31210;SDS011;17836;50.948;3.946;2022-09-09T03:41:23;11.07;;;2.78;;
31210;SDS011;17836;50.948;3.946;2022-09-09T03:43:49;6.72;;;2.53;;
31210;SDS011;17836;50.948;3.946;2022-09-09T03:46:14;7.20;;;2.20;;
31210;SDS011;17836;50.948;3.946;2022-09-09T03:48:40;9.15;;;2.65;;
31210;SDS011;17836;50.948;3.946;2022-09-09T03:51:05;15.90;;;2.30;;
31210;SDS011;17836;50.948;3.946;2022-09-09T03:53:30;12.50;;;3.13;;
31210;SDS011;17836;50.948;3.946;2022-09-09T03:55:57;10.77;;;2.70;;
31210;SDS011;17836;50.948;3.946;2022-09-09T03:58:24;7.68;;;2.50;;
31210;SDS011;17836;50.948;3.946;2022-09-09T04:01:02;9.95;;;2.20;;
31210;SDS011;17836;50.948;3.946;2022-09-09T04:03:27;6.90;;;2.40;;
31210;SDS011;17836;50.948;3.946;2022-09-09T04:05:53;8.20;;;2.10;;
31210;SDS011;17836;50.948;3.946;2022-09-09T04:08:19;9.98;;;2.72;;
31210;SDS011;17836;50.948;3.946;2022-09-09T04:10:45;10.68;;;2.85;;
31210;SDS011;17836;50.948;3.946;2022-09-09T04:13:12;10.85;;;2.45;;
31210;SDS011;17836;50.948;3.946;2022-09-09T04:15:41;9.10;;;2.95;;
31210;SDS011;17836;50.948;3.946;2022-09-09T04:18:07;12.13;;;2.55;;
31210;SDS011;17836;50.948;3.946;2022-09-09T04:20:32;7.13;;;1.98;;
31210;SDS011;17836;50.948;3.946;2022-09-09T04:22:58;11.00;;;2.85;;
31210;SDS011;17836;50.948;3.946;2022-09-09T04:25:23;12.70;;;2.63;;
31210;SDS011;17836;50.948;3.946;2022-09-09T04:27:52;11.67;;;2.50;;
31210;SDS011;17836;50.948;3.946;2022-09-09T04:30:18;10.68;;;2.47;;
31210;SDS011;17836;50.948;3.946;2022-09-09T04:32:43;12.30;;;2.43;;
31210;SDS011;17836;50.948;3.946;2022-09-09T04:35:09;9.40;;;2.60;;
31210;SDS011;17836;50.948;3.946;2022-09-09T04:37:34;15.90;;;2.83;;
31210;SDS011;17836;50.948;3.946;2022-09-09T04:39:59;7.25;;;2.78;;
31210;SDS011;17836;50.948;3.946;2022-09-09T04:42:27;15.40;;;2.83;;
31210;SDS011;17836;50.948;3.946;2022-09-09T04:44:52;15.32;;;2.88;;
31210;SDS011;17836;50.948;3.946;2022-09-09T04:47:19;13.10;;;2.55;;
31210;SDS011;17836;50.948;3.946;2022-09-09T04:49:44;10.02;;;1.98;;
31210;SDS011;17836;50.948;3.946;2022-09-09T04:52:09;7.73;;;2.60;;
31210;SDS011;17836;50.948;3.946;2022-09-09T04:54:35;18.85;;;3.42;;
31210;SDS011;17836;50.948;3.946;2022-09-09T04:57:01;9.23;;;1.92;;
31210;SDS011;17836;50.948;3.946;2022-09-09T04:59:26;12.65;;;3.08;;
31210;SDS011;17836;50.948;3.946;2022-09-09T05:01:52;10.65;;;2.67;;
31210;SDS011;17836;50.948;3.946;2022-09-09T05:04:20;13.15;;;2.45;;
31210;SDS011;17836;50.948;3.946;2022-09-09T05:06:45;9.15;;;2.25;;
31210;SDS011;17836;50.948;3.946;2022-09-09T05:09:11;10.40;;;2.30;;
31210;SDS011;17836;50.948;3.946;2022-09-09T05:11:37;11.63;;;2.75;;
31210;SDS011;17836;50.948;3.946;2022-09-09T05:14:03;14.15;;;2.58;;
31210;SDS011;17836;50.948;3.946;2022-09-09T05:16:28;10.38;;;2.53;;
31210;SDS011;17836;50.948;3.946;2022-09-09T05:18:54;11.93;;;2.33;;
31210;SDS011;17836;50.948;3.946;2022-09-09T05:21:20;9.55;;;2.47;;
31210;SDS011;17836;50.948;3.946;2022-09-09T05:23:47;8.98;;;2.30;;
31210;SDS011;17836;50.948;3.946;2022-09-09T05:26:13;17.58;;;2.83;;
31210;SDS011;17836;50.948;3.946;2022-09-09T05:28:39;10.50;;;2.08;;
31210;SDS011;17836;50.948;3.946;2022-09-09T05:31:05;14.00;;;2.97;;
31210;SDS011;17836;50.948;3.946;2022-09-09T05:33:32;6.50;;;1.98;;
31210;SDS011;17836;50.948;3.946;2022-09-09T05:35:58;14.23;;;2.40;;
31210;SDS011;17836;50.948;3.946;2022-09-09T05:38:24;11.50;;;2.03;;
31210;SDS011;17836;50.948;3.946;2022-09-09T05:40:50;9.57;;;2.30;;
31210;SDS011;17836;50.948;3.946;2022-09-09T05:43:17;7.75;;;2.08;;
31210;SDS011;17836;50.948;3.946;2022-09-09T05:45:42;9.53;;;2.10;;
31210;SDS011;17836;50.948;3.946;2022-09-09T05:48:08;9.50;;;2.33;;
31210;SDS011;17836;50.948;3.946;2022-09-09T05:50:34;10.77;;;2.17;;
31210;SDS011;17836;50.948;3.946;2022-09-09T05:52:59;11.43;;;1.98;;
31210;SDS011;17836;50.948;3.946;2022-09-09T05:55:24;12.83;;;2.73;;
31210;SDS011;17836;50.948;3.946;2022-09-09T05:57:50;7.93;;;1.95;;
31210;SDS011;17836;50.948;3.946;2022-09-09T06:00:17;10.68;;;2.03;;
31210;SDS011;17836;50.948;3.946;2022-09-09T06:02:42;10.02;;;2.50;;
31210;SDS011;17836;50.948;3.946;2022-09-09T06:05:08;15.98;;;4.03;;
31210;SDS011;17836;50.948;3.946;2022-09-09T06:07:33;7.87;;;2.33;;
31210;SDS011;17836;50.948;3.946;2022-09-09T06:09:58;7.40;;;2.37;;
31210;SDS011;17836;50.948;3.946;2022-09-09T06:12:25;14.30;;;2.85;;
31210;SDS011;17836;50.948;3.946;2022-09-09T06:14:50;8.70;;;1.90;;
31210;SDS011;17836;50.948;3.946;2022-09-09T06:17:16;17.30;;;2.83;;
31210;SDS011;17836;50.948;3.946;2022-09-09T06:19:41;13.07;;;2.77;;
31210;SDS011;17836;50.948;3.946;2022-09-09T06:22:07;8.90;;;1.73;;
31210;SDS011;17836;50.948;3.946;2022-09-09T06:24:32;7.33;;;1.90;;
31210;SDS011;17836;50.948;3.946;2022-09-09T06:26:57;6.57;;;2.10;;
31210;SDS011;17836;50.948;3.946;2022-09-09T06:29:23;8.17;;;2.77;;
31210;SDS011;17836;50.948;3.946;2022-09-09T06:31:48;7.78;;;2.80;;
31210;SDS011;17836;50.948;3.946;2022-09-09T06:34:14;11.43;;;2.55;;
31210;SDS011;17836;50.948;3.946;2022-09-09T06:36:40;7.70;;;1.77;;
31210;SDS011;17836;50.948;3.946;2022-09-09T06:39:06;8.73;;;2.05;;
31210;SDS011;17836;50.948;3.946;2022-09-09T06:41:32;10.10;;;1.73;;
31210;SDS011;17836;50.948;3.946;2022-09-09T06:43:58;12.85;;;2.60;;
31210;SDS011;17836;50.948;3.946;2022-09-09T06:46:24;8.65;;;1.88;;
31210;SDS011;17836;50.948;3.946;2022-09-09T06:48:52;10.00;;;1.63;;
31210;SDS011;17836;50.948;3.946;2022-09-09T06:51:20;9.20;;;1.98;;
31210;SDS011;17836;50.948;3.946;2022-09-09T06:53:46;8.60;;;2.38;;
31210;SDS011;17836;50.948;3.946;2022-09-09T06:56:22;6.68;;;2.05;;
31210;SDS011;17836;50.948;3.946;2022-09-09T06:58:49;8.68;;;1.88;;
31210;SDS011;17836;50.948;3.946;2022-09-09T07:01:15;7.07;;;2.45;;
31210;SDS011;17836;50.948;3.946;2022-09-09T07:03:44;6.70;;;1.92;;
31210;SDS011;17836;50.948;3.946;2022-09-09T07:06:14;7.93;;;2.30;;
31210;SDS011;17836;50.948;3.946;2022-09-09T07:08:39;8.40;;;1.80;;
31210;SDS011;17836;50.948;3.946;2022-09-09T07:11:05;8.35;;;2.47;;
31210;SDS011;17836;50.948;3.946;2022-09-09T07:13:31;9.13;;;2.28;;
31210;SDS011;17836;50.948;3.946;2022-09-09T07:16:12;8.67;;;1.73;;
31210;SDS011;17836;50.948;3.946;2022-09-09T07:18:38;9.65;;;2.47;;
31210;SDS011;17836;50.948;3.946;2022-09-09T07:21:04;9.88;;;1.90;;
31210;SDS011;17836;50.948;3.946;2022-09-09T07:23:31;7.95;;;1.60;;
31210;SDS011;17836;50.948;3.946;2022-09-09T07:25:57;9.20;;;1.70;;
31210;SDS011;17836;50.948;3.946;2022-09-09T07:28:23;7.97;;;1.90;;
31210;SDS011;17836;50.948;3.946;2022-09-09T07:31:01;10.38;;;2.25;;
31210;SDS011;17836;50.948;3.946;2022-09-09T07:33:28;7.72;;;2.15;;
31210;SDS011;17836;50.948;3.946;2022-09-09T07:36:01;5.80;;;1.92;;
31210;SDS011;17836;50.948;3.946;2022-09-09T07:38:27;8.13;;;1.98;;
31210;SDS011;17836;50.948;3.946;2022-09-09T07:40:53;10.65;;;2.17;;
31210;SDS011;17836;50.948;3.946;2022-09-09T07:43:18;13.60;;;2.63;;
31210;SDS011;17836;50.948;3.946;2022-09-09T07:45:44;7.35;;;2.17;;
31210;SDS011;17836;50.948;3.946;2022-09-09T07:48:10;5.05;;;1.30;;
31210;SDS011;17836;50.948;3.946;2022-09-09T07:50:35;6.13;;;1.90;;
31210;SDS011;17836;50.948;3.946;2022-09-09T07:53:01;18.55;;;1.77;;
31210;SDS011;17836;50.948;3.946;2022-09-09T07:55:27;7.03;;;1.73;;
31210;SDS011;17836;50.948;3.946;2022-09-09T07:57:53;4.82;;;1.50;;
31210;SDS011;17836;50.948;3.946;2022-09-09T08:00:19;8.38;;;1.80;;
31210;SDS011;17836;50.948;3.946;2022-09-09T08:02:47;6.95;;;1.17;;
31210;SDS011;17836;50.948;3.946;2022-09-09T08:05:12;5.43;;;1.42;;
31210;SDS011;17836;50.948;3.946;2022-09-09T08:07:38;8.48;;;1.70;;
31210;SDS011;17836;50.948;3.946;2022-09-09T08:10:03;6.40;;;1.45;;
31210;SDS011;17836;50.948;3.946;2022-09-09T08:12:29;6.80;;;1.33;;
31210;SDS011;17836;50.948;3.946;2022-09-09T08:14:55;7.65;;;1.73;;
31210;SDS011;17836;50.948;3.946;2022-09-09T08:17:20;4.20;;;1.20;;
31210;SDS011;17836;50.948;3.946;2022-09-09T08:19:45;7.33;;;1.63;;
31210;SDS011;17836;50.948;3.946;2022-09-09T08:22:11;6.15;;;1.42;;
31210;SDS011;17836;50.948;3.946;2022-09-09T08:24:37;5.25;;;1.33;;
31210;SDS011;17836;50.948;3.946;2022-09-09T08:27:02;5.23;;;1.47;;
31210;SDS011;17836;50.948;3.946;2022-09-09T08:29:28;6.55;;;1.77;;
31210;SDS011;17836;50.948;3.946;2022-09-09T08:31:55;5.40;;;1.30;;
31210;SDS011;17836;50.948;3.946;2022-09-09T08:34:22;7.78;;;1.70;;
31210;SDS011;17836;50.948;3.946;2022-09-09T08:36:48;10.88;;;2.03;;
31210;SDS011;17836;50.948;3.946;2022-09-09T08:39:15;6.72;;;1.33;;
31210;SDS011;17836;50.948;3.946;2022-09-09T08:41:44;6.63;;;2.00;;
31210;SDS011;17836;50.948;3.946;2022-09-09T08:52:14;6.90;;;1.80;;
31210;SDS011;17836;50.948;3.946;2022-09-09T08:54:41;6.25;;;3.15;;
31210;SDS011;17836;50.948;3.946;2022-09-09T08:57:07;8.47;;;1.50;;
31210;SDS011;17836;50.948;3.946;2022-09-09T08:59:36;5.25;;;1.80;;
31210;SDS011;17836;50.948;3.946;2022-09-09T09:02:05;5.45;;;1.40;;
31210;SDS011;17836;50.948;3.946;2022-09-09T09:05:37;6.00;;;1.83;;
31210;SDS011;17836;50.948;3.946;2022-09-09T09:12:29;7.13;;;2.10;;
31210;SDS011;17836;50.948;3.946;2022-09-09T09:14:57;6.05;;;1.48;;
31210;SDS011;17836;50.948;3.946;2022-09-09T09:17:25;7.07;;;1.60;;
31210;SDS011;17836;50.948;3.946;2022-09-09T09:19:51;6.90;;;1.85;;
31210;SDS011;17836;50.948;3.946;2022-09-09T09:22:20;4.30;;;1.15;;
31210;SDS011;17836;50.948;3.946;2022-09-09T09:29:49;6.75;;;1.70;;
31210;SDS011;17836;50.948;3.946;2022-09-09T09:32:16;4.07;;;1.10;;
31210;SDS011;17836;50.948;3.946;2022-09-09T09:34:42;5.68;;;1.38;;
31210;SDS011;17836;50.948;3.946;2022-09-09T09:37:16;4.88;;;1.08;;
31210;SDS011;17836;50.948;3.946;2022-09-09T09:39:44;4.22;;;1.40;;
31210;SDS011;17836;50.948;3.946;2022-09-09T09:42:11;4.72;;;2.05;;
31210;SDS011;17836;50.948;3.946;2022-09-09T09:44:38;4.80;;;1.35;;
31210;SDS011;17836;50.948;3.946;2022-09-09T09:49:32;8.20;;;1.67;;
31210;SDS011;17836;50.948;3.946;2022-09-09T09:52:04;5.80;;;1.37;;
31210;SDS011;17836;50.948;3.946;2022-09-09T09:54:30;6.50;;;1.60;;
31210;SDS011;17836;50.948;3.946;2022-09-09T09:57:06;5.45;;;1.40;;
31210;SDS011;17836;50.948;3.946;2022-09-09T09:59:33;5.43;;;1.50;;
31210;SDS011;17836;50.948;3.946;2022-09-09T10:02:37;2.47;;;1.17;;
31210;SDS011;17836;50.948;3.946;2022-09-09T10:07:36;5.75;;;1.55;;
31210;SDS011;17836;50.948;3.946;2022-09-09T10:10:02;3.40;;;1.00;;
31210;SDS011;17836;50.948;3.946;2022-09-09T10:15:07;6.03;;;1.67;;
31210;SDS011;17836;50.948;3.946;2022-09-09T10:17:54;7.40;;;1.48;;
31210;SDS011;17836;50.948;3.946;2022-09-09T10:22:52;4.78;;;1.10;;
31210;SDS011;17836;50.948;3.946;2022-09-09T10:25:30;3.47;;;0.93;;
31210;SDS011;17836;50.948;3.946;2022-09-09T10:33:32;2.38;;;1.05;;
31210;SDS011;17836;50.948;3.946;2022-09-09T10:36:12;8.80;;;1.60;;
31210;SDS011;17836;50.948;3.946;2022-09-09T10:38:42;2.88;;;1.27;;
31210;SDS011;17836;50.948;3.946;2022-09-09T10:51:44;4.45;;;1.05;;
31210;SDS011;17836;50.948;3.946;2022-09-09T10:56:30;4.13;;;1.05;;
31210;SDS011;17836;50.948;3.946;2022-09-09T11:01:22;3.50;;;1.13;;
31210;SDS011;17836;50.948;3.946;2022-09-09T11:03:54;4.60;;;1.20;;
31210;SDS011;17836;50.948;3.946;2022-09-09T11:08:46;3.30;;;1.13;;
31210;SDS011;17836;50.948;3.946;2022-09-09T11:11:17;2.90;;;0.95;;
31210;SDS011;17836;50.948;3.946;2022-09-09T11:13:55;3.92;;;1.10;;
31210;SDS011;17836;50.948;3.946;2022-09-09T11:16:31;3.20;;;0.98;;
31210;SDS011;17836;50.948;3.946;2022-09-09T11:19:45;3.05;;;0.93;;
31210;SDS011;17836;50.948;3.946;2022-09-09T11:21:47;2.17;;;0.60;;
31210;SDS011;17836;50.948;3.946;2022-09-09T11:24:23;2.03;;;0.75;;
31210;SDS011;17836;50.948;3.946;2022-09-09T11:26:54;3.20;;;0.70;;
31210;SDS011;17836;50.948;3.946;2022-09-09T11:31:58;3.00;;;0.90;;
31210;SDS011;17836;50.948;3.946;2022-09-09T11:42:05;4.33;;;0.70;;
31210;SDS011;17836;50.948;3.946;2022-09-09T11:44:34;5.55;;;1.17;;
31210;SDS011;17836;50.948;3.946;2022-09-09T11:46:59;1.33;;;0.70;;
31210;SDS011;17836;50.948;3.946;2022-09-09T11:49:28;3.88;;;0.80;;
31210;SDS011;17836;50.948;3.946;2022-09-09T11:51:56;2.90;;;1.17;;
31210;SDS011;17836;50.948;3.946;2022-09-09T11:54:27;6.72;;;1.10;;
31210;SDS011;17836;50.948;3.946;2022-09-09T11:56:54;4.82;;;0.90;;
31210;SDS011;17836;50.948;3.946;2022-09-09T11:59:32;3.38;;;0.75;;
31210;SDS011;17836;50.948;3.946;2022-09-09T12:06:52;4.10;;;0.70;;
31210;SDS011;17836;50.948;3.946;2022-09-09T12:11:43;2.50;;;0.80;;
31210;SDS011;17836;50.948;3.946;2022-09-09T12:14:18;5.20;;;1.37;;
31210;SDS011;17836;50.948;3.946;2022-09-09T12:16:44;1.98;;;0.68;;
31210;SDS011;17836;50.948;3.946;2022-09-09T12:21:36;5.83;;;1.40;;
31210;SDS011;17836;50.948;3.946;2022-09-09T12:24:10;2.72;;;1.00;;
31210;SDS011;17836;50.948;3.946;2022-09-09T12:26:41;6.88;;;1.38;;
31210;SDS011;17836;50.948;3.946;2022-09-09T12:29:23;3.25;;;1.00;;
31210;SDS011;17836;50.948;3.946;2022-09-09T12:32:06;3.35;;;0.85;;
31210;SDS011;17836;50.948;3.946;2022-09-09T12:37:00;5.00;;;1.33;;
31210;SDS011;17836;50.948;3.946;2022-09-09T12:41:53;2.28;;;1.10;;
31210;SDS011;17836;50.948;3.946;2022-09-09T12:44:22;1.65;;;0.80;;
31210;SDS011;17836;50.948;3.946;2022-09-09T12:46:50;2.67;;;1.08;;
31210;SDS011;17836;50.948;3.946;2022-09-09T12:51:51;3.95;;;0.98;;
31210;SDS011;17836;50.948;3.946;2022-09-09T12:54:17;2.25;;;0.80;;
31210;SDS011;17836;50.948;3.946;2022-09-09T12:56:45;4.05;;;0.95;;
31210;SDS011;17836;50.948;3.946;2022-09-09T12:59:18;4.28;;;1.10;;
31210;SDS011;17836;50.948;3.946;2022-09-09T13:01:54;4.28;;;1.10;;
31210;SDS011;17836;50.948;3.946;2022-09-09T13:04:20;4.00;;;1.20;;
31210;SDS011;17836;50.948;3.946;2022-09-09T13:06:47;2.97;;;0.73;;
31210;SDS011;17836;50.948;3.946;2022-09-09T13:09:12;8.50;;;1.42;;
31210;SDS011;17836;50.948;3.946;2022-09-09T13:11:39;3.47;;;0.88;;
31210;SDS011;17836;50.948;3.946;2022-09-09T13:14:12;2.75;;;1.23;;
31210;SDS011;17836;50.948;3.946;2022-09-09T13:16:38;5.82;;;1.25;;
31210;SDS011;17836;50.948;3.946;2022-09-09T13:19:07;2.58;;;0.75;;
31210;SDS011;17836;50.948;3.946;2022-09-09T13:21:34;3.47;;;0.82;;
31210;SDS011;17836;50.948;3.946;2022-09-09T13:24:00;4.05;;;1.05;;
31210;SDS011;17836;50.948;3.946;2022-09-09T13:26:28;2.10;;;0.80;;
31210;SDS011;17836;50.948;3.946;2022-09-09T13:28:54;2.97;;;0.90;;
31210;SDS011;17836;50.948;3.946;2022-09-09T13:31:38;3.55;;;0.60;;
31210;SDS011;17836;50.948;3.946;2022-09-09T13:34:22;2.42;;;0.77;;
31210;SDS011;17836;50.948;3.946;2022-09-09T13:36:52;2.47;;;0.75;;
31210;SDS011;17836;50.948;3.946;2022-09-09T13:39:19;3.40;;;0.80;;
31210;SDS011;17836;50.948;3.946;2022-09-09T13:41:44;2.17;;;0.80;;
31210;SDS011;17836;50.948;3.946;2022-09-09T13:44:21;1.55;;;0.80;;
31210;SDS011;17836;50.948;3.946;2022-09-09T13:46:58;3.97;;;0.80;;
31210;SDS011;17836;50.948;3.946;2022-09-09T13:49:24;3.25;;;0.60;;
31210;SDS011;17836;50.948;3.946;2022-09-09T13:52:02;2.58;;;1.10;;
31210;SDS011;17836;50.948;3.946;2022-09-09T13:54:28;3.78;;;0.70;;
31210;SDS011;17836;50.948;3.946;2022-09-09T13:56:55;2.22;;;0.60;;
31210;SDS011;17836;50.948;3.946;2022-09-09T13:59:21;3.90;;;0.60;;
31210;SDS011;17836;50.948;3.946;2022-09-09T14:01:47;3.90;;;0.90;;
31210;SDS011;17836;50.948;3.946;2022-09-09T14:04:12;3.70;;;0.90;;
31210;SDS011;17836;50.948;3.946;2022-09-09T14:06:38;2.77;;;0.90;;
31210;SDS011;17836;50.948;3.946;2022-09-09T14:09:07;4.13;;;0.90;;
31210;SDS011;17836;50.948;3.946;2022-09-09T14:11:34;4.88;;;1.02;;
31210;SDS011;17836;50.948;3.946;2022-09-09T14:14:00;5.83;;;0.90;;
31210;SDS011;17836;50.948;3.946;2022-09-09T14:16:25;2.80;;;1.00;;
31210;SDS011;17836;50.948;3.946;2022-09-09T14:18:52;1.95;;;0.65;;
31210;SDS011;17836;50.948;3.946;2022-09-09T14:21:18;2.58;;;0.80;;
31210;SDS011;17836;50.948;3.946;2022-09-09T14:23:46;3.00;;;0.88;;
31210;SDS011;17836;50.948;3.946;2022-09-09T14:26:13;2.25;;;0.68;;
31210;SDS011;17836;50.948;3.946;2022-09-09T14:28:39;4.38;;;0.68;;
31210;SDS011;17836;50.948;3.946;2022-09-09T14:31:05;3.22;;;1.00;;
31210;SDS011;17836;50.948;3.946;2022-09-09T14:33:30;4.37;;;0.97;;
31210;SDS011;17836;50.948;3.946;2022-09-09T14:35:56;3.58;;;1.00;;
31210;SDS011;17836;50.948;3.946;2022-09-09T14:38:22;2.88;;;0.70;;
31210;SDS011;17836;50.948;3.946;2022-09-09T14:40:47;7.63;;;1.00;;
31210;SDS011;17836;50.948;3.946;2022-09-09T14:43:13;3.35;;;1.02;;
31210;SDS011;17836;50.948;3.946;2022-09-09T14:45:39;2.78;;;0.80;;
31210;SDS011;17836;50.948;3.946;2022-09-09T14:48:04;4.37;;;1.20;;
31210;SDS011;17836;50.948;3.946;2022-09-09T14:50:30;3.20;;;1.30;;
31210;SDS011;17836;50.948;3.946;2022-09-09T14:52:55;4.33;;;1.10;;
31210;SDS011;17836;50.948;3.946;2022-09-09T14:55:21;3.33;;;1.13;;
31210;SDS011;17836;50.948;3.946;2022-09-09T14:57:46;3.83;;;1.20;;
31210;SDS011;17836;50.948;3.946;2022-09-09T15:00:12;2.88;;;1.05;;
31210;SDS011;17836;50.948;3.946;2022-09-09T15:02:38;4.55;;;0.90;;
31210;SDS011;17836;50.948;3.946;2022-09-09T15:05:04;3.42;;;1.20;;
31210;SDS011;17836;50.948;3.946;2022-09-09T15:07:29;2.38;;;0.95;;
31210;SDS011;17836;50.948;3.946;2022-09-09T15:09:56;2.10;;;1.05;;
31210;SDS011;17836;50.948;3.946;2022-09-09T15:12:22;5.38;;;1.17;;
31210;SDS011;17836;50.948;3.946;2022-09-09T15:14:47;5.70;;;1.10;;
31210;SDS011;17836;50.948;3.946;2022-09-09T15:17:13;3.50;;;1.00;;
31210;SDS011;17836;50.948;3.946;2022-09-09T15:19:38;4.85;;;1.30;;
31210;SDS011;17836;50.948;3.946;2022-09-09T15:22:04;3.42;;;1.27;;
31210;SDS011;17836;50.948;3.946;2022-09-09T15:24:31;21.05;;;4.05;;
31210;SDS011;17836;50.948;3.946;2022-09-09T15:26:56;12.95;;;2.65;;
31210;SDS011;17836;50.948;3.946;2022-09-09T15:29:22;3.60;;;1.17;;
31210;SDS011;17836;50.948;3.946;2022-09-09T15:31:47;4.17;;;1.40;;
31210;SDS011;17836;50.948;3.946;2022-09-09T15:34:12;6.33;;;2.23;;
31210;SDS011;17836;50.948;3.946;2022-09-09T15:36:45;3.17;;;1.52;;
31210;SDS011;17836;50.948;3.946;2022-09-09T15:39:14;6.68;;;1.95;;
31210;SDS011;17836;50.948;3.946;2022-09-09T15:41:46;5.00;;;2.00;;
31210;SDS011;17836;50.948;3.946;2022-09-09T15:44:12;4.05;;;1.67;;
31210;SDS011;17836;50.948;3.946;2022-09-09T15:46:39;4.60;;;2.33;;
31210;SDS011;17836;50.948;3.946;2022-09-09T15:51:37;4.75;;;1.52;;
31210;SDS011;17836;50.948;3.946;2022-09-09T15:54:03;3.72;;;1.50;;
31210;SDS011;17836;50.948;3.946;2022-09-09T15:56:28;6.57;;;1.30;;
31210;SDS011;17836;50.948;3.946;2022-09-09T15:58:57;3.05;;;1.30;;
31210;SDS011;17836;50.948;3.946;2022-09-09T16:01:24;2.65;;;1.30;;
31210;SDS011;17836;50.948;3.946;2022-09-09T16:03:49;6.15;;;1.80;;
31210;SDS011;17836;50.948;3.946;2022-09-09T16:06:19;3.40;;;1.42;;
31210;SDS011;17836;50.948;3.946;2022-09-09T16:08:46;2.20;;;1.33;;
31210;SDS011;17836;50.948;3.946;2022-09-09T16:11:13;2.05;;;1.08;;
31210;SDS011;17836;50.948;3.946;2022-09-09T16:13:40;3.25;;;1.00;;
31210;SDS011;17836;50.948;3.946;2022-09-09T16:16:06;2.63;;;0.93;;
31210;SDS011;17836;50.948;3.946;2022-09-09T16:18:38;3.10;;;1.27;;
31210;SDS011;17836;50.948;3.946;2022-09-09T16:21:04;1.33;;;0.82;;
31210;SDS011;17836;50.948;3.946;2022-09-09T16:23:31;3.67;;;0.90;;
31210;SDS011;17836;50.948;3.946;2022-09-09T16:25:57;4.78;;;1.33;;
31210;SDS011;17836;50.948;3.946;2022-09-09T16:28:23;3.10;;;1.50;;
31210;SDS011;17836;50.948;3.946;2022-09-09T16:30:48;5.63;;;2.73;;
31210;SDS011;17836;50.948;3.946;2022-09-09T16:33:14;3.50;;;1.88;;
31210;SDS011;17836;50.948;3.946;2022-09-09T16:35:40;3.40;;;1.70;;
31210;SDS011;17836;50.948;3.946;2022-09-09T16:38:05;8.10;;;2.95;;
31210;SDS011;17836;50.948;3.946;2022-09-09T16:40:33;4.57;;;2.35;;
31210;SDS011;17836;50.948;3.946;2022-09-09T16:42:59;3.35;;;1.38;;
31210;SDS011;17836;50.948;3.946;2022-09-09T16:45:24;2.43;;;1.17;;
31210;SDS011;17836;50.948;3.946;2022-09-09T16:47:50;2.40;;;1.03;;